createdAt,value
2023-04-16T00:00:15.320Z,0.93
2023-04-16T00:02:46.805Z,1.55
2023-04-16T00:05:17.389Z,2.25
2023-04-16T00:07:47.780Z,0.82
2023-04-16T00:10:18.147Z,0.80
2023-04-16T00:12:48.605Z,0.98
2023-04-16T00:15:21.554Z,1.48
2023-04-16T00:17:51.856Z,1.35
2023-04-16T00:20:23.108Z,1.27
2023-04-16T00:22:53.410Z,1.00
2023-04-16T00:25:23.920Z,1.35
2023-04-16T00:27:54.355Z,1.17
2023-04-16T00:30:27.359Z,1.13
2023-04-16T00:33:00.149Z,1.05
2023-04-16T00:35:30.704Z,0.90
2023-04-16T00:38:01.241Z,0.93
2023-04-16T00:40:31.792Z,0.68
2023-04-16T00:43:02.140Z,0.88
2023-04-16T00:45:35.246Z,1.23
2023-04-16T00:48:05.715Z,0.55
2023-04-16T00:50:36.898Z,0.73
2023-04-16T00:55:37.392Z,1.25
2023-04-16T00:58:07.839Z,1.10
2023-04-16T01:00:41.833Z,0.65
2023-04-16T01:03:12.899Z,2.15
2023-04-16T01:08:19.082Z,0.70
2023-04-16T01:10:49.481Z,0.90
2023-04-16T01:13:19.798Z,1.17
2023-04-16T01:15:52.769Z,1.05
2023-04-16T01:18:23.935Z,1.20
2023-04-16T01:23:26.867Z,0.90
2023-04-16T01:25:57.421Z,1.02
2023-04-16T01:28:27.706Z,1.00
2023-04-16T01:30:58.079Z,0.95
2023-04-16T01:33:28.393Z,0.90
2023-04-16T01:35:58.736Z,0.77
2023-04-16T01:38:31.792Z,1.15
2023-04-16T01:41:02.377Z,0.65
2023-04-16T01:43:32.658Z,1.30
2023-04-16T01:46:12.333Z,0.90
2023-04-16T01:48:42.678Z,1.02
2023-04-16T01:51:13.059Z,1.35
2023-04-16T01:53:46.037Z,1.17
2023-04-16T01:56:16.405Z,1.27
2023-04-16T01:58:47.358Z,1.05
2023-04-16T02:01:17.765Z,1.10
2023-04-16T02:03:48.331Z,0.88
2023-04-16T02:06:19.065Z,0.57
2023-04-16T02:08:52.005Z,1.15
2023-04-16T02:11:22.519Z,0.77
2023-04-16T02:13:52.794Z,0.85
2023-04-16T02:16:23.183Z,0.90
2023-04-16T02:18:53.555Z,1.58
2023-04-16T02:21:23.856Z,1.20
2023-04-16T02:23:57.678Z,0.85
2023-04-16T02:26:29.426Z,1.55
2023-04-16T02:28:59.694Z,0.82
2023-04-16T02:31:30.884Z,1.33
2023-04-16T02:34:01.308Z,1.70
2023-04-16T02:36:31.772Z,1.27
2023-04-16T02:39:04.822Z,0.98
2023-04-16T02:41:35.272Z,1.25
2023-04-16T02:44:05.567Z,1.02
2023-04-16T02:46:35.911Z,1.25
2023-04-16T02:49:06.190Z,1.73
2023-04-16T02:51:36.535Z,1.30
2023-04-16T02:54:09.436Z,1.48
2023-04-16T02:56:40.021Z,1.05
2023-04-16T02:59:10.502Z,0.90
2023-04-16T03:01:41.267Z,1.15
2023-04-16T03:04:11.865Z,1.27
2023-04-16T03:06:42.457Z,0.98
2023-04-16T03:09:15.347Z,0.95
2023-04-16T03:11:45.671Z,1.05
2023-04-16T03:14:16.042Z,1.30
2023-04-16T03:16:46.413Z,0.88
2023-04-16T03:19:16.712Z,0.90
2023-04-16T03:21:47.086Z,1.42
2023-04-16T03:24:20.124Z,1.60
2023-04-16T03:26:50.481Z,1.48
2023-04-16T03:29:20.775Z,1.83
2023-04-16T03:31:51.164Z,1.50
2023-04-16T03:34:21.558Z,1.85
2023-04-16T03:36:52.128Z,1.20
2023-04-16T03:39:24.989Z,1.60
2023-04-16T03:41:55.280Z,0.90
2023-04-16T03:44:25.569Z,0.95
2023-04-16T03:46:56.051Z,0.95
2023-04-16T03:49:26.486Z,1.42
2023-04-16T03:51:56.857Z,1.80
2023-04-16T03:54:29.739Z,1.45
2023-04-16T03:57:00.351Z,0.90
2023-04-16T03:59:30.637Z,0.98
2023-04-16T04:02:01.053Z,1.08
2023-04-16T04:04:31.473Z,1.23
2023-04-16T04:07:02.020Z,0.68
2023-04-16T04:09:34.907Z,0.95
2023-04-16T04:12:05.357Z,1.88
2023-04-16T04:14:39.926Z,1.15
2023-04-16T04:17:10.786Z,1.00
2023-04-16T04:19:47.121Z,1.40
2023-04-16T04:22:24.871Z,1.95
2023-04-16T04:24:57.788Z,1.33
2023-04-16T04:27:28.122Z,1.45
2023-04-16T04:29:58.567Z,1.58
2023-04-16T04:32:28.908Z,1.27
2023-04-16T04:34:59.239Z,1.52
2023-04-16T04:37:29.570Z,1.67
2023-04-16T04:40:02.460Z,1.23
2023-04-16T04:42:32.835Z,0.95
2023-04-16T04:45:03.092Z,1.45
2023-04-16T04:47:33.465Z,1.40
2023-04-16T04:50:03.791Z,1.50
2023-04-16T04:52:34.110Z,1.45
2023-04-16T04:55:07.119Z,1.45
2023-04-16T04:57:37.444Z,2.53
2023-04-16T05:00:07.992Z,1.20
2023-04-16T05:02:38.853Z,1.60
2023-04-16T05:05:09.861Z,1.77
2023-04-16T05:07:40.520Z,1.63
2023-04-16T05:10:14.065Z,1.45
2023-04-16T05:12:44.830Z,1.17
2023-04-16T05:15:15.364Z,1.20
2023-04-16T05:17:45.783Z,1.17
2023-04-16T05:20:16.219Z,1.42
2023-04-16T05:22:46.560Z,1.70
2023-04-16T05:25:20.019Z,1.33
2023-04-16T05:27:50.347Z,1.35
2023-04-16T05:30:20.793Z,1.55
2023-04-16T05:32:51.907Z,1.17
2023-04-16T05:35:22.347Z,1.23
2023-04-16T05:37:52.653Z,1.10
2023-04-16T05:40:26.415Z,1.58
2023-04-16T05:42:56.732Z,1.20
2023-04-16T05:45:28.120Z,1.67
2023-04-16T05:47:58.606Z,1.77
2023-04-16T05:50:28.949Z,1.58
2023-04-16T05:52:59.251Z,1.63
2023-04-16T05:55:32.234Z,1.48
2023-04-16T05:58:04.747Z,1.63
2023-04-16T06:00:35.152Z,2.20
2023-04-16T06:03:06.019Z,1.92
2023-04-16T06:05:36.560Z,2.25
2023-04-16T06:08:06.961Z,1.98
2023-04-16T06:10:39.862Z,1.90
2023-04-16T06:13:10.194Z,2.35
2023-04-16T06:15:40.527Z,1.75
2023-04-16T06:18:11.046Z,2.90
2023-04-16T06:20:41.445Z,1.83
2023-04-16T06:23:11.796Z,2.40
2023-04-16T06:25:44.813Z,2.17
2023-04-16T06:28:15.195Z,2.15
2023-04-16T06:30:45.611Z,2.95
2023-04-16T06:33:16.301Z,2.20
2023-04-16T06:35:46.590Z,2.63
2023-04-16T06:38:16.890Z,2.90
2023-04-16T06:40:49.787Z,2.67
2023-04-16T06:43:20.695Z,3.20
2023-04-16T06:45:51.016Z,2.55
2023-04-16T06:48:21.482Z,2.58
2023-04-16T06:50:51.795Z,4.18
2023-04-16T06:53:22.150Z,2.88
2023-04-16T06:55:55.801Z,3.53
2023-04-16T06:58:26.260Z,3.50
2023-04-16T07:00:56.606Z,6.20
2023-04-16T07:03:27.165Z,3.10
2023-04-16T07:05:57.575Z,2.60
2023-04-16T07:08:27.956Z,2.83
2023-04-16T07:11:00.817Z,3.88
2023-04-16T07:13:31.169Z,3.00
2023-04-16T07:16:01.635Z,3.03
2023-04-16T07:18:31.986Z,3.83
2023-04-16T07:21:02.365Z,3.72
2023-04-16T07:23:32.752Z,3.67
2023-04-16T07:26:05.659Z,4.18
2023-04-16T07:28:36.073Z,4.00
2023-04-16T07:31:06.540Z,3.75
2023-04-16T07:33:36.848Z,4.93
2023-04-16T07:36:07.288Z,3.20
2023-04-16T07:38:37.678Z,3.47
2023-04-16T07:41:11.756Z,4.20
2023-04-16T07:43:42.072Z,4.25
2023-04-16T07:46:12.404Z,4.22
2023-04-16T07:48:42.859Z,4.07
2023-04-16T07:51:13.186Z,4.30
2023-04-16T07:53:43.812Z,5.25
2023-04-16T07:56:17.947Z,3.97
2023-04-16T07:58:48.317Z,6.10
2023-04-16T08:01:18.596Z,3.97
2023-04-16T08:03:49.157Z,3.80
2023-04-16T08:06:19.579Z,3.50
2023-04-16T08:08:49.915Z,3.47
2023-04-16T08:11:22.829Z,3.15
2023-04-16T08:13:53.577Z,3.80
2023-04-16T08:16:23.976Z,3.70
2023-04-16T08:18:54.362Z,4.05
2023-04-16T08:21:24.660Z,2.88
2023-04-16T08:23:54.997Z,3.55
2023-04-16T08:26:27.879Z,3.45
2023-04-16T08:28:58.335Z,3.60
2023-04-16T08:31:28.688Z,3.00
2023-04-16T08:33:59.160Z,3.05
2023-04-16T08:36:29.813Z,3.33
2023-04-16T08:39:00.146Z,3.42
2023-04-16T08:41:34.881Z,3.58
2023-04-16T08:44:07.360Z,2.83
2023-04-16T08:46:40.432Z,3.13
2023-04-16T08:49:11.495Z,2.85
2023-04-16T08:51:45.909Z,3.05
2023-04-16T08:54:18.723Z,2.72
2023-04-16T08:56:52.407Z,3.35
2023-04-16T08:59:23.032Z,3.17
2023-04-16T09:01:53.600Z,3.35
2023-04-16T09:04:25.078Z,3.13
2023-04-16T09:06:56.310Z,3.90
2023-04-16T09:11:59.853Z,3.35
2023-04-16T09:14:30.657Z,3.83
2023-04-16T09:17:02.573Z,4.03
2023-04-16T09:19:32.917Z,3.17
2023-04-16T09:22:03.241Z,3.33
2023-04-16T09:24:33.696Z,3.70
2023-04-16T09:27:07.255Z,3.38
2023-04-16T09:29:39.010Z,3.90
2023-04-16T09:32:10.732Z,4.15
2023-04-16T09:34:56.167Z,6.10
2023-04-16T09:37:26.619Z,5.32
2023-04-16T09:39:57.690Z,7.32
2023-04-16T09:42:32.470Z,8.93
2023-04-16T09:45:05.743Z,6.10
2023-04-16T09:47:43.898Z,5.80
2023-04-16T09:50:18.607Z,4.80
2023-04-16T09:52:51.507Z,5.32
2023-04-16T09:55:26.663Z,4.40
2023-04-16T09:58:05.098Z,5.20
2023-04-16T10:00:35.395Z,4.72
2023-04-16T10:03:14.112Z,4.85
2023-04-16T10:05:44.975Z,4.25
2023-04-16T10:08:16.240Z,4.65
2023-04-16T10:10:46.708Z,4.07
2023-04-16T10:13:19.614Z,5.68
2023-04-16T10:15:50.373Z,4.38
2023-04-16T10:18:22.148Z,4.40
2023-04-16T10:20:52.991Z,4.32
2023-04-16T10:23:24.006Z,4.03
2023-04-16T10:25:56.415Z,4.75
2023-04-16T10:28:31.249Z,4.03
2023-04-16T10:31:01.986Z,4.55
2023-04-16T10:33:33.055Z,4.38
2023-04-16T10:36:20.943Z,4.80
2023-04-16T10:38:52.684Z,4.88
2023-04-16T10:41:23.819Z,4.28
2023-04-16T10:43:57.241Z,4.10
2023-04-16T10:46:28.337Z,5.00
2023-04-16T10:51:29.632Z,6.32
2023-04-16T10:56:31.687Z,5.15
2023-04-16T10:59:04.937Z,4.38
2023-04-16T11:01:36.367Z,4.55
2023-04-16T11:04:21.940Z,3.85
2023-04-16T11:07:03.991Z,5.03
2023-04-16T11:09:48.376Z,4.57
2023-04-16T11:12:19.534Z,5.10
2023-04-16T11:17:23.515Z,4.40
2023-04-16T11:19:54.307Z,4.85
2023-04-16T11:22:24.917Z,4.43
2023-04-16T11:24:57.935Z,4.88
2023-04-16T11:27:28.534Z,4.43
2023-04-16T11:30:02.716Z,5.80
2023-04-16T11:32:37.805Z,5.40
2023-04-16T11:35:08.905Z,4.20
2023-04-16T11:40:12.734Z,5.20
2023-04-16T11:42:44.663Z,5.10
2023-04-16T11:45:15.664Z,4.70
2023-04-16T11:47:53.239Z,5.90
2023-04-16T11:52:54.285Z,4.97
2023-04-16T11:55:24.873Z,4.25
2023-04-16T11:57:55.236Z,4.07
2023-04-16T12:00:26.522Z,4.25
2023-04-16T12:02:59.592Z,3.92
2023-04-16T12:05:31.238Z,6.20
2023-04-16T12:08:01.898Z,4.25
2023-04-16T12:10:32.804Z,4.70
2023-04-16T12:13:16.437Z,4.88
2023-04-16T12:15:50.814Z,4.43
2023-04-16T12:18:24.210Z,3.72
2023-04-16T12:20:54.579Z,4.50
2023-04-16T12:23:28.426Z,4.93
2023-04-16T12:25:59.861Z,4.47
2023-04-16T12:28:31.875Z,5.05
2023-04-16T12:31:02.667Z,5.65
2023-04-16T12:33:35.811Z,5.07
2023-04-16T12:36:20.227Z,5.18
2023-04-16T12:38:50.571Z,4.85
2023-04-16T12:41:20.844Z,5.18
2023-04-16T12:43:51.231Z,4.70
2023-04-16T12:46:21.592Z,4.55
2023-04-16T12:48:54.532Z,4.25
2023-04-16T12:51:24.832Z,4.63
2023-04-16T12:53:55.429Z,4.65
2023-04-16T12:56:25.743Z,4.30
2023-04-16T12:58:56.133Z,4.90
2023-04-16T13:01:26.848Z,4.50
2023-04-16T13:03:59.984Z,4.72
2023-04-16T13:06:31.605Z,5.53
2023-04-16T13:09:02.027Z,5.00
2023-04-16T13:11:32.412Z,5.15
2023-04-16T13:14:02.804Z,5.75
2023-04-16T13:16:33.090Z,5.35
2023-04-16T13:19:06.076Z,4.68
2023-04-16T13:21:37.157Z,5.65
2023-04-16T13:26:37.542Z,5.07
2023-04-16T13:29:08.039Z,4.47
2023-04-16T13:31:38.645Z,4.43
2023-04-16T13:34:11.908Z,4.47
2023-04-16T13:36:42.320Z,4.38
2023-04-16T13:39:13.491Z,5.00
2023-04-16T13:41:43.994Z,4.63
2023-04-16T13:44:14.323Z,3.42
2023-04-16T13:46:47.878Z,3.78
2023-04-16T13:49:20.877Z,4.25
2023-04-16T13:51:51.217Z,4.55
2023-04-16T13:54:21.879Z,4.55
2023-04-16T13:56:53.580Z,5.45
2023-04-16T13:59:23.985Z,4.78
2023-04-16T14:01:54.775Z,5.10
2023-04-16T14:04:27.743Z,5.70
2023-04-16T14:06:58.222Z,5.13
2023-04-16T14:09:28.587Z,6.03
2023-04-16T14:11:58.983Z,5.35
2023-04-16T14:14:29.472Z,4.88
2023-04-16T14:16:59.854Z,7.00
2023-04-16T14:19:32.774Z,6.70
2023-04-16T14:22:03.109Z,5.95
2023-04-16T14:24:33.455Z,5.53
2023-04-16T14:27:03.753Z,5.47
2023-04-16T14:29:34.570Z,7.68
2023-04-16T14:32:04.959Z,6.10
2023-04-16T14:34:37.906Z,6.80
2023-04-16T14:37:08.195Z,4.45
2023-04-16T14:39:39.478Z,6.35
2023-04-16T14:42:09.930Z,4.93
2023-04-16T14:44:40.381Z,5.63
2023-04-16T14:47:11.510Z,5.50
2023-04-16T14:49:44.481Z,6.13
2023-04-16T14:52:14.906Z,6.20
2023-04-16T14:54:45.313Z,6.60
2023-04-16T14:57:15.661Z,6.43
2023-04-16T14:59:45.980Z,6.05
2023-04-16T15:02:16.481Z,4.85
2023-04-16T15:04:49.763Z,8.00
2023-04-16T15:07:20.075Z,6.63
2023-04-16T15:09:51.536Z,10.65
2023-04-16T15:12:21.972Z,4.95
2023-04-16T15:14:52.373Z,5.00
2023-04-16T15:17:23.372Z,5.65
2023-04-16T15:24:57.150Z,5.15
2023-04-16T15:27:27.540Z,5.22
2023-04-16T15:29:58.117Z,6.55
2023-04-16T15:32:28.411Z,11.95
2023-04-16T15:34:58.740Z,6.97
2023-04-16T15:37:29.145Z,6.85
2023-04-16T15:40:02.179Z,7.07
2023-04-16T15:42:32.498Z,7.43
2023-04-16T15:45:02.960Z,6.28
2023-04-16T15:47:33.356Z,7.32
2023-04-16T15:50:04.087Z,5.13
2023-04-16T15:52:34.428Z,4.82
2023-04-16T15:55:07.514Z,5.90
2023-04-16T15:57:37.898Z,5.97
2023-04-16T16:00:13.707Z,5.25
2023-04-16T16:02:44.720Z,6.55
2023-04-16T16:05:15.853Z,6.07
2023-04-16T16:07:46.957Z,5.90
2023-04-16T16:10:20.608Z,6.93
2023-04-16T16:12:50.959Z,7.75
2023-04-16T16:15:21.856Z,6.82
2023-04-16T16:17:53.655Z,5.38
2023-04-16T16:20:24.322Z,6.22
2023-04-16T16:22:56.694Z,6.25
2023-04-16T16:25:30.535Z,6.50
2023-04-16T16:28:02.567Z,7.00
2023-04-16T16:30:34.643Z,6.32
2023-04-16T16:33:04.975Z,6.15
2023-04-16T16:35:35.418Z,5.80
2023-04-16T16:38:08.810Z,5.80
2023-04-16T16:40:42.456Z,6.00
2023-04-16T16:43:12.871Z,6.53
2023-04-16T16:45:43.275Z,5.53
2023-04-16T16:48:13.685Z,6.63
2023-04-16T16:50:44.033Z,5.53
2023-04-16T16:53:14.323Z,6.75
2023-04-16T16:55:47.375Z,10.00
2023-04-16T16:58:17.654Z,6.93
2023-04-16T17:00:48.076Z,7.28
2023-04-16T17:03:18.534Z,7.65
2023-04-16T17:05:48.961Z,8.20
2023-04-16T17:08:19.350Z,7.25
2023-04-16T17:10:52.502Z,8.48
2023-04-16T17:13:23.875Z,6.72
2023-04-16T17:15:54.230Z,6.03
2023-04-16T17:18:24.555Z,5.90
2023-04-16T17:20:54.963Z,7.18
2023-04-16T17:23:25.288Z,6.53
2023-04-16T17:25:58.251Z,6.63
2023-04-16T17:28:28.680Z,7.25
2023-04-16T17:30:59.699Z,11.85
2023-04-16T17:33:30.037Z,9.50
2023-04-16T17:36:00.536Z,9.75
2023-04-16T17:38:30.892Z,9.35
2023-04-16T17:41:03.868Z,7.45
2023-04-16T17:43:34.173Z,7.07
2023-04-16T17:46:04.569Z,6.88
2023-04-16T17:48:35.042Z,7.40
2023-04-16T17:51:12.200Z,6.28
2023-04-16T17:53:42.916Z,7.25
2023-04-16T17:56:16.095Z,5.93
2023-04-16T17:58:46.401Z,8.23
2023-04-16T18:01:16.861Z,6.57
2023-04-16T18:03:47.448Z,6.10
2023-04-16T18:06:18.078Z,6.45
2023-04-16T18:08:48.433Z,7.45
2023-04-16T18:11:21.450Z,7.82
2023-04-16T18:13:54.015Z,7.72
2023-04-16T18:16:25.557Z,7.60
2023-04-16T18:18:55.934Z,7.38
2023-04-16T18:21:26.432Z,7.60
2023-04-16T18:23:56.817Z,6.63
2023-04-16T18:26:30.071Z,6.88
2023-04-16T18:29:00.479Z,7.38
2023-04-16T18:31:31.003Z,7.50
2023-04-16T18:34:01.413Z,7.97
2023-04-16T18:36:31.819Z,7.15
2023-04-16T18:39:02.760Z,28.48
2023-04-16T18:41:38.200Z,9.38
2023-04-16T18:44:10.848Z,9.75
2023-04-16T18:46:41.252Z,9.13
2023-04-16T18:49:11.750Z,10.02
2023-04-16T18:51:42.328Z,8.98
2023-04-16T18:54:12.746Z,9.52
2023-04-16T18:56:45.969Z,8.80
2023-04-16T18:59:16.277Z,10.73
2023-04-16T19:01:46.622Z,9.90
2023-04-16T19:04:17.043Z,9.48
2023-04-16T19:06:48.688Z,9.77
2023-04-16T19:09:20.135Z,8.85
2023-04-16T19:11:53.104Z,10.13
2023-04-16T19:14:23.454Z,9.68
2023-04-16T19:16:53.787Z,10.32
2023-04-16T19:19:24.125Z,10.40
2023-04-16T19:21:54.465Z,9.20
2023-04-16T19:24:24.851Z,9.98
2023-04-16T19:26:57.866Z,10.75
2023-04-16T19:29:28.257Z,10.25
2023-04-16T19:31:58.751Z,10.18
2023-04-16T19:34:29.144Z,10.57
2023-04-16T19:36:59.501Z,9.57
2023-04-16T19:39:30.267Z,9.57
2023-04-16T19:42:03.433Z,10.00
2023-04-16T19:44:33.805Z,10.73
2023-04-16T19:47:04.530Z,9.90
2023-04-16T19:49:34.857Z,9.32
2023-04-16T19:52:05.352Z,9.00
2023-04-16T19:54:37.418Z,9.15
2023-04-16T19:57:10.440Z,10.10
2023-04-16T19:59:41.091Z,10.23
2023-04-16T20:02:11.630Z,9.93
2023-04-16T20:04:44.887Z,10.65
2023-04-16T20:07:15.259Z,11.13
2023-04-16T20:09:45.762Z,10.95
2023-04-16T20:12:18.784Z,10.60
2023-04-16T20:14:49.093Z,9.80
2023-04-16T20:17:20.704Z,10.02
2023-04-16T20:19:51.381Z,10.63
2023-04-16T20:22:21.829Z,10.70
2023-04-16T20:24:55.342Z,11.82
2023-04-16T20:27:29.077Z,10.23
2023-04-16T20:29:59.394Z,10.38
2023-04-16T20:32:29.874Z,10.32
2023-04-16T20:35:00.274Z,11.25
2023-04-16T20:37:31.437Z,11.13
2023-04-16T20:42:34.413Z,10.38
2023-04-16T20:45:05.107Z,10.35
2023-04-16T20:47:35.713Z,12.73
2023-04-16T20:50:06.098Z,11.93
2023-04-16T20:52:36.732Z,9.63
2023-04-16T20:55:08.260Z,10.50
2023-04-16T20:57:41.573Z,10.50
2023-04-16T21:00:12.697Z,10.63
2023-04-16T21:05:14.668Z,10.27
2023-04-16T21:07:45.118Z,12.00
2023-04-16T21:10:20.462Z,11.48
2023-04-16T21:12:53.613Z,12.32
2023-04-16T21:15:23.915Z,11.55
2023-04-16T21:17:54.286Z,10.18
2023-04-16T21:20:24.596Z,12.45
2023-04-16T21:22:57.007Z,13.73
2023-04-16T21:25:27.343Z,13.77
2023-04-16T21:28:00.288Z,15.32
2023-04-16T21:30:30.599Z,13.82
2023-04-16T21:33:01.042Z,11.32
2023-04-16T21:35:31.431Z,10.75
2023-04-16T21:38:01.802Z,9.10
2023-04-16T21:40:32.150Z,9.75
2023-04-16T21:43:05.127Z,9.23
2023-04-16T21:45:35.434Z,10.02
2023-04-16T21:48:05.923Z,9.25
2023-04-16T21:50:36.277Z,8.60
2023-04-16T21:53:07.624Z,9.32
2023-04-16T21:55:38.074Z,9.43
2023-04-16T21:58:10.983Z,8.27
2023-04-16T22:00:41.320Z,9.68
2023-04-16T22:03:12.723Z,10.90
2023-04-16T22:05:43.249Z,10.27
2023-04-16T22:08:23.843Z,8.27
2023-04-16T22:10:55.066Z,9.82
2023-04-16T22:13:28.355Z,9.05
2023-04-16T22:16:01.488Z,10.10
2023-04-16T22:18:33.317Z,10.18
2023-04-16T22:21:03.912Z,10.07
2023-04-16T22:23:34.214Z,8.23
2023-04-16T22:26:05.118Z,10.65
2023-04-16T22:28:38.376Z,10.70
2023-04-16T22:31:08.870Z,10.23
2023-04-16T22:33:39.256Z,10.55
2023-04-16T22:36:09.979Z,10.00
2023-04-16T22:38:40.988Z,10.82
2023-04-16T22:41:11.300Z,9.55
2023-04-16T22:43:44.261Z,9.85
2023-04-16T22:46:14.739Z,9.27
2023-04-16T22:48:45.364Z,9.15
2023-04-16T22:51:16.272Z,10.02
2023-04-16T22:53:46.630Z,11.05
2023-04-16T22:56:16.945Z,9.98
2023-04-16T22:58:50.188Z,9.48
2023-04-16T23:01:20.721Z,9.75
2023-04-16T23:03:51.184Z,11.50
2023-04-16T23:06:22.229Z,10.30
2023-04-16T23:08:52.533Z,11.63
2023-04-16T23:11:22.809Z,12.10
2023-04-16T23:13:56.017Z,11.63
2023-04-16T23:16:26.621Z,11.73
2023-04-16T23:18:57.066Z,10.82
2023-04-16T23:21:27.359Z,11.45
2023-04-16T23:23:59.062Z,11.50
2023-04-16T23:26:29.351Z,12.27
2023-04-16T23:29:02.385Z,10.63
2023-04-16T23:31:32.688Z,12.23
2023-04-16T23:34:03.203Z,11.27
2023-04-16T23:36:33.495Z,12.30
2023-04-16T23:39:03.923Z,10.98
2023-04-16T23:41:34.276Z,11.77
2023-04-16T23:44:07.217Z,11.93
2023-04-16T23:46:39.093Z,12.60
2023-04-16T23:49:09.700Z,10.38
2023-04-16T23:51:40.338Z,13.50
2023-04-16T23:54:10.828Z,11.13
2023-04-16T23:56:41.687Z,12.45
2023-04-16T23:59:14.744Z,11.35
